createdAt,value
2019-05-29T00:00:18.736Z,3.80
2019-05-29T00:02:48.235Z,3.67
2019-05-29T00:05:18.415Z,3.60
2019-05-29T00:07:47.941Z,3.77
2019-05-29T00:10:18.609Z,3.50
2019-05-29T00:12:48.165Z,3.33
2019-05-29T00:15:18.705Z,3.47
2019-05-29T00:17:48.172Z,3.37
2019-05-29T00:20:18.658Z,3.90
2019-05-29T00:22:48.275Z,4.07
2019-05-29T00:25:18.848Z,10.03
2019-05-29T00:27:48.378Z,3.50
2019-05-29T00:30:18.120Z,7.90
2019-05-29T00:32:47.550Z,4.00
2019-05-29T00:35:17.124Z,3.80
2019-05-29T00:37:46.566Z,4.20
2019-05-29T00:40:17.194Z,3.17
2019-05-29T00:42:46.634Z,3.43
2019-05-29T00:45:17.594Z,7.80
2019-05-29T00:47:47.197Z,8.63
2019-05-29T00:50:17.432Z,5.23
2019-05-29T00:52:46.901Z,3.33
2019-05-29T00:55:16.868Z,3.90
2019-05-29T00:57:46.397Z,3.97
2019-05-29T01:00:17.348Z,3.90
2019-05-29T01:02:47.137Z,3.50
2019-05-29T01:05:18.077Z,4.67
2019-05-29T01:07:47.640Z,3.60
2019-05-29T01:10:18.971Z,3.43
2019-05-29T01:12:48.568Z,5.53
2019-05-29T01:15:19.529Z,4.27
2019-05-29T01:17:49.066Z,3.20
2019-05-29T01:20:19.909Z,3.57
2019-05-29T01:22:50.969Z,3.63
2019-05-29T01:25:20.594Z,4.47
2019-05-29T01:27:50.040Z,3.40
2019-05-29T01:30:19.517Z,3.60
2019-05-29T01:32:48.953Z,4.47
2019-05-29T01:35:19.919Z,3.60
2019-05-29T01:37:49.556Z,3.73
2019-05-29T01:40:24.429Z,3.60
2019-05-29T01:42:50.345Z,2.90
2019-05-29T01:45:19.838Z,4.87
2019-05-29T01:47:49.291Z,4.40
2019-05-29T01:50:19.627Z,4.13
2019-05-29T01:52:49.218Z,4.10
2019-05-29T01:55:19.767Z,4.17
2019-05-29T01:57:49.363Z,5.03
2019-05-29T02:00:20.112Z,4.50
2019-05-29T02:02:49.707Z,3.80
2019-05-29T02:05:19.990Z,4.87
2019-05-29T02:07:49.604Z,3.87
2019-05-29T02:10:20.236Z,4.27
2019-05-29T02:12:49.808Z,4.27
2019-05-29T02:15:27.033Z,4.97
2019-05-29T02:17:50.679Z,5.10
2019-05-29T02:20:21.136Z,4.47
2019-05-29T02:22:50.706Z,4.70
2019-05-29T02:25:22.587Z,5.43
2019-05-29T02:27:52.057Z,9.13
2019-05-29T02:30:24.911Z,6.03
2019-05-29T02:32:53.213Z,7.30
2019-05-29T02:35:24.648Z,5.80
2019-05-29T02:37:53.774Z,5.33
2019-05-29T02:40:25.606Z,5.30
2019-05-29T02:42:54.643Z,4.90
2019-05-29T02:45:37.355Z,4.70
2019-05-29T02:47:55.219Z,5.60
2019-05-29T02:50:26.592Z,5.67
2019-05-29T02:52:55.823Z,5.17
2019-05-29T02:55:26.715Z,5.40
2019-05-29T02:57:56.459Z,5.43
2019-05-29T03:00:48.803Z,5.97
2019-05-29T03:03:18.234Z,5.43
2019-05-29T03:05:47.870Z,6.40
2019-05-29T03:08:17.644Z,5.23
2019-05-29T03:10:47.195Z,5.50
2019-05-29T03:13:17.845Z,5.67
2019-05-29T03:15:47.365Z,5.77
2019-05-29T03:18:17.755Z,5.40
2019-05-29T03:20:47.201Z,5.53
2019-05-29T03:23:16.662Z,5.47
2019-05-29T03:25:46.102Z,5.57
2019-05-29T03:28:15.615Z,5.00
2019-05-29T03:30:46.440Z,5.77
2019-05-29T03:33:16.181Z,6.10
2019-05-29T03:35:48.091Z,6.03
2019-05-29T03:38:17.330Z,5.67
2019-05-29T03:40:46.784Z,5.70
2019-05-29T03:43:16.245Z,5.70
2019-05-29T03:45:45.697Z,5.97
2019-05-29T03:48:15.191Z,6.13
2019-05-29T03:50:44.625Z,5.80
2019-05-29T03:53:14.115Z,5.40
2019-05-29T03:55:43.886Z,5.27
2019-05-29T03:58:13.363Z,5.90
2019-05-29T04:00:46.322Z,5.40
2019-05-29T04:03:13.932Z,5.93
2019-05-29T04:05:43.461Z,5.63
2019-05-29T04:08:12.916Z,5.57
2019-05-29T04:10:42.362Z,5.70
2019-05-29T04:13:11.831Z,5.67
2019-05-29T04:15:42.873Z,5.40
2019-05-29T04:18:12.475Z,5.67
2019-05-29T04:20:44.259Z,6.23
2019-05-29T04:23:14.718Z,5.80
2019-05-29T04:25:45.663Z,6.47
2019-05-29T04:28:15.140Z,5.80
2019-05-29T04:30:44.640Z,5.97
2019-05-29T04:33:14.112Z,5.47
2019-05-29T04:35:43.558Z,5.90
2019-05-29T04:38:13.040Z,5.53
2019-05-29T04:40:42.500Z,6.37
2019-05-29T04:43:11.965Z,5.67
2019-05-29T04:45:41.527Z,6.07
2019-05-29T04:48:11.026Z,6.07
2019-05-29T04:50:40.870Z,5.70
2019-05-29T04:53:10.495Z,5.80
2019-05-29T04:55:39.964Z,5.77
2019-05-29T04:58:09.440Z,5.67
2019-05-29T05:00:39.380Z,5.40
2019-05-29T05:03:08.996Z,5.37
2019-05-29T05:05:39.559Z,6.40
2019-05-29T05:08:09.175Z,6.00
2019-05-29T05:10:41.066Z,6.30
2019-05-29T05:13:10.700Z,5.53
2019-05-29T05:15:40.333Z,6.63
2019-05-29T05:18:09.906Z,6.23
2019-05-29T05:20:40.372Z,7.00
2019-05-29T05:23:09.992Z,6.50
2019-05-29T05:25:40.859Z,5.90
2019-05-29T05:28:10.617Z,5.80
2019-05-29T05:30:40.805Z,6.33
2019-05-29T05:33:10.462Z,6.83
2019-05-29T05:35:41.011Z,6.70
2019-05-29T05:38:10.563Z,7.43
2019-05-29T05:40:42.950Z,6.53
2019-05-29T05:43:23.148Z,6.40
2019-05-29T05:45:43.834Z,7.00
2019-05-29T05:48:13.374Z,6.07
2019-05-29T05:50:42.876Z,6.80
2019-05-29T05:53:12.334Z,5.90
2019-05-29T05:55:41.916Z,5.53
2019-05-29T05:58:11.356Z,5.93
2019-05-29T06:00:41.936Z,6.70
2019-05-29T06:03:11.565Z,5.87
2019-05-29T06:05:42.195Z,6.90
2019-05-29T06:08:11.817Z,6.03
2019-05-29T06:10:42.433Z,7.13
2019-05-29T06:13:12.011Z,6.30
2019-05-29T06:15:42.831Z,6.70
2019-05-29T06:18:21.136Z,6.80
2019-05-29T06:20:43.573Z,6.50
2019-05-29T06:23:13.081Z,6.40
2019-05-29T06:25:43.866Z,6.40
2019-05-29T06:28:13.503Z,6.80
2019-05-29T06:30:44.904Z,6.57
2019-05-29T06:33:14.189Z,6.90
2019-05-29T06:35:43.829Z,6.80
2019-05-29T06:38:13.304Z,6.10
2019-05-29T06:40:44.036Z,7.23
2019-05-29T06:43:23.782Z,7.03
2019-05-29T06:45:54.886Z,6.73
2019-05-29T06:48:41.866Z,6.90
2019-05-29T06:50:57.983Z,6.80
2019-05-29T06:53:28.013Z,6.37
2019-05-29T06:55:58.869Z,5.80
2019-05-29T06:58:28.618Z,5.50
2019-05-29T07:00:58.094Z,5.80
2019-05-29T07:03:27.529Z,6.07
2019-05-29T07:05:57.000Z,5.90
2019-05-29T07:08:38.408Z,6.20
2019-05-29T07:10:57.550Z,5.60
2019-05-29T07:13:27.016Z,4.90
2019-05-29T07:15:56.508Z,5.43
2019-05-29T07:18:25.974Z,4.80
2019-05-29T07:20:55.439Z,6.10
2019-05-29T07:23:24.887Z,5.47
2019-05-29T07:25:54.422Z,5.93
2019-05-29T07:28:23.895Z,5.30
2019-05-29T07:31:00.421Z,5.43
2019-05-29T07:33:24.489Z,7.83
2019-05-29T07:35:53.991Z,7.07
2019-05-29T07:38:23.503Z,5.70
2019-05-29T07:40:53.381Z,6.10
2019-05-29T07:43:22.859Z,5.67
2019-05-29T07:45:52.413Z,5.60
2019-05-29T07:48:22.164Z,5.47
2019-05-29T07:51:06.082Z,5.33
2019-05-29T07:53:23.338Z,5.57
2019-05-29T07:55:53.813Z,4.70
2019-05-29T07:58:23.264Z,5.40
2019-05-29T08:01:11.625Z,5.13
2019-05-29T08:03:23.861Z,5.10
2019-05-29T08:05:53.536Z,5.20
2019-05-29T08:08:22.991Z,4.90
2019-05-29T08:10:52.567Z,4.30
2019-05-29T08:13:22.050Z,4.00
2019-05-29T08:16:01.600Z,4.30
2019-05-29T08:18:22.639Z,4.03
2019-05-29T08:20:52.103Z,4.20
2019-05-29T08:23:21.546Z,4.20
2019-05-29T08:25:51.876Z,4.20
2019-05-29T08:28:21.363Z,4.83
2019-05-29T08:30:56.006Z,5.40
2019-05-29T08:33:21.919Z,3.83
2019-05-29T08:35:59.398Z,4.10
2019-05-29T08:38:22.479Z,3.70
2019-05-29T08:40:51.950Z,5.70
2019-05-29T08:43:21.397Z,3.87
2019-05-29T08:45:52.687Z,3.90
2019-05-29T08:48:21.969Z,4.40
2019-05-29T08:50:51.996Z,3.77
2019-05-29T08:53:21.631Z,5.30
2019-05-29T08:55:52.637Z,4.57
2019-05-29T08:58:22.458Z,4.13
2019-05-29T09:00:54.957Z,4.83
2019-05-29T09:03:23.016Z,4.50
2019-05-29T09:06:07.955Z,4.40
2019-05-29T09:08:23.565Z,4.13
2019-05-29T09:10:54.285Z,3.87
2019-05-29T09:13:23.993Z,3.47
2019-05-29T09:15:53.438Z,3.50
2019-05-29T09:18:25.522Z,3.30
2019-05-29T09:21:02.985Z,4.40
2019-05-29T09:23:25.170Z,4.30
2019-05-29T09:25:54.686Z,4.07
2019-05-29T09:28:23.830Z,3.90
2019-05-29T09:30:53.441Z,4.30
2019-05-29T09:33:23.545Z,3.50
2019-05-29T09:35:54.010Z,4.43
2019-05-29T09:38:24.747Z,4.10
2019-05-29T09:40:54.610Z,3.70
2019-05-29T09:43:29.973Z,4.33
2019-05-29T09:45:55.539Z,4.77
2019-05-29T09:48:27.455Z,4.50
2019-05-29T09:50:56.203Z,3.60
2019-05-29T09:53:25.739Z,3.90
2019-05-29T09:55:57.007Z,3.50
2019-05-29T09:58:26.340Z,3.90
2019-05-29T10:01:16.223Z,4.00
2019-05-29T10:03:26.905Z,4.43
2019-05-29T10:05:57.501Z,4.00
2019-05-29T10:08:27.171Z,4.23
2019-05-29T10:11:04.732Z,4.43
2019-05-29T10:13:27.721Z,4.27
2019-05-29T10:15:57.732Z,4.93
2019-05-29T10:18:32.432Z,4.00
2019-05-29T10:21:01.224Z,4.60
2019-05-29T10:23:30.886Z,4.00
2019-05-29T10:26:02.531Z,4.53
2019-05-29T10:28:49.241Z,4.20
2019-05-29T10:31:03.996Z,3.30
2019-05-29T10:33:33.723Z,3.57
2019-05-29T10:36:04.239Z,3.30
2019-05-29T10:38:33.813Z,3.30
2019-05-29T10:41:06.912Z,3.70
2019-05-29T10:43:35.080Z,3.57
2019-05-29T10:46:05.034Z,3.90
2019-05-29T10:48:34.527Z,3.93
2019-05-29T10:51:03.993Z,3.70
2019-05-29T10:53:33.503Z,3.33
2019-05-29T10:56:02.938Z,2.93
2019-05-29T10:58:47.981Z,3.80
2019-05-29T11:01:03.666Z,4.53
2019-05-29T11:03:33.195Z,4.13
2019-05-29T11:06:02.860Z,4.00
2019-05-29T11:08:32.334Z,3.17
2019-05-29T11:11:01.803Z,3.50
2019-05-29T11:13:31.340Z,4.07
2019-05-29T11:16:00.835Z,3.57
2019-05-29T11:18:30.309Z,3.60
2019-05-29T11:20:59.752Z,4.67
2019-05-29T11:23:29.251Z,3.10
2019-05-29T11:25:58.784Z,2.90
2019-05-29T11:28:28.257Z,3.40
2019-05-29T11:30:59.316Z,3.00
2019-05-29T11:33:28.878Z,3.10
2019-05-29T11:36:10.034Z,3.20
2019-05-29T11:38:29.458Z,4.13
2019-05-29T11:41:24.691Z,3.83
2019-05-29T11:43:30.221Z,2.80
2019-05-29T11:45:59.720Z,3.30
2019-05-29T11:48:29.179Z,2.40
2019-05-29T11:50:58.636Z,2.80
2019-05-29T11:53:28.127Z,3.43
2019-05-29T11:55:57.782Z,3.00
2019-05-29T11:58:31.246Z,2.70
2019-05-29T12:00:59.215Z,3.27
2019-05-29T12:03:28.820Z,3.37
2019-05-29T12:05:59.334Z,3.00
2019-05-29T12:08:28.947Z,3.67
2019-05-29T12:10:59.478Z,3.43
2019-05-29T12:13:29.194Z,3.10
2019-05-29T12:16:01.789Z,3.43
2019-05-29T12:18:31.342Z,3.00
2019-05-29T12:21:01.744Z,3.20
2019-05-29T12:23:31.942Z,3.77
2019-05-29T12:26:19.745Z,4.30
2019-05-29T12:28:32.599Z,3.70
2019-05-29T12:31:03.470Z,3.93
2019-05-29T12:33:32.985Z,3.80
2019-05-29T12:36:03.364Z,4.00
2019-05-29T12:38:32.983Z,3.97
2019-05-29T12:41:03.787Z,3.93
2019-05-29T12:43:33.342Z,4.40
2019-05-29T12:46:03.933Z,4.60
2019-05-29T12:48:33.495Z,4.67
2019-05-29T12:51:04.097Z,4.23
2019-05-29T12:53:33.842Z,4.60
2019-05-29T12:56:04.582Z,3.67
2019-05-29T12:58:34.184Z,2.70
2019-05-29T13:01:05.188Z,3.20
2019-05-29T13:03:35.613Z,3.37
2019-05-29T13:06:05.067Z,2.83
2019-05-29T13:08:36.008Z,3.13
2019-05-29T13:11:05.472Z,4.10
2019-05-29T13:13:34.943Z,3.67
2019-05-29T13:16:05.193Z,3.30
2019-05-29T13:18:34.953Z,3.40
2019-05-29T13:21:05.157Z,3.60
2019-05-29T13:23:44.739Z,4.00
2019-05-29T13:26:05.862Z,3.97
2019-05-29T13:28:35.322Z,3.63
2019-05-29T13:31:06.593Z,4.33
2019-05-29T13:33:35.989Z,4.53
2019-05-29T13:36:06.838Z,4.40
2019-05-29T13:38:36.524Z,3.83
2019-05-29T13:41:06.695Z,4.20
2019-05-29T13:43:36.186Z,4.17
2019-05-29T13:46:05.633Z,4.17
2019-05-29T13:48:35.218Z,3.63
2019-05-29T13:51:05.523Z,3.13
2019-05-29T13:53:35.219Z,3.03
2019-05-29T13:56:06.113Z,2.80
2019-05-29T13:58:35.662Z,2.30
2019-05-29T14:01:06.433Z,2.20
2019-05-29T14:03:35.842Z,2.60
2019-05-29T14:06:05.929Z,2.37
2019-05-29T14:08:36.406Z,2.20
2019-05-29T14:11:07.251Z,2.30
2019-05-29T14:13:36.766Z,2.20
2019-05-29T14:16:06.831Z,2.30
2019-05-29T14:18:36.468Z,2.10
2019-05-29T14:21:07.333Z,2.27
2019-05-29T14:23:39.647Z,2.13
2019-05-29T14:26:08.598Z,1.90
2019-05-29T14:28:38.258Z,2.30
2019-05-29T14:31:08.356Z,2.20
2019-05-29T14:33:38.013Z,2.30
2019-05-29T14:36:07.714Z,2.10
2019-05-29T14:38:37.346Z,2.27
2019-05-29T14:41:08.178Z,2.70
2019-05-29T14:43:37.775Z,1.97
2019-05-29T14:46:08.087Z,2.70
2019-05-29T14:48:37.746Z,2.60
2019-05-29T14:51:08.166Z,2.77
2019-05-29T14:53:37.953Z,2.20
2019-05-29T14:56:08.745Z,2.53
2019-05-29T14:58:38.394Z,2.57
2019-05-29T15:01:09.116Z,2.03
2019-05-29T15:03:38.628Z,2.43
2019-05-29T15:06:08.092Z,2.47
2019-05-29T15:08:37.532Z,2.73
2019-05-29T15:11:07.931Z,2.70
2019-05-29T15:13:37.366Z,2.20
2019-05-29T15:16:06.842Z,2.50
2019-05-29T15:18:36.326Z,2.40
2019-05-29T15:21:06.880Z,2.30
2019-05-29T15:23:36.464Z,2.23
2019-05-29T15:26:05.931Z,2.63
2019-05-29T15:28:35.386Z,2.57
2019-05-29T15:31:06.188Z,2.50
2019-05-29T15:33:35.830Z,2.20
2019-05-29T15:36:06.442Z,2.37
2019-05-29T15:38:36.184Z,2.13
2019-05-29T15:41:06.642Z,2.47
2019-05-29T15:43:36.190Z,2.50
2019-05-29T15:46:09.593Z,2.30
2019-05-29T15:48:36.889Z,2.60
2019-05-29T15:51:06.881Z,2.33
2019-05-29T15:53:36.502Z,2.40
2019-05-29T15:56:18.068Z,2.40
2019-05-29T15:58:37.053Z,2.60
2019-05-29T16:01:07.639Z,2.00
2019-05-29T16:03:37.556Z,2.30
2019-05-29T16:06:07.666Z,2.30
2019-05-29T16:08:38.379Z,2.10
2019-05-29T16:11:08.610Z,2.30
2019-05-29T16:13:38.084Z,2.40
2019-05-29T16:16:09.321Z,2.20
2019-05-29T16:18:38.657Z,2.23
2019-05-29T16:21:08.158Z,2.37
2019-05-29T16:23:37.749Z,2.20
2019-05-29T16:26:07.226Z,2.17
2019-05-29T16:28:36.662Z,1.50
2019-05-29T16:31:06.145Z,1.50
2019-05-29T16:33:35.645Z,1.17
2019-05-29T16:36:05.397Z,1.77
2019-05-29T16:38:34.937Z,1.40
2019-05-29T16:41:04.401Z,1.40
2019-05-29T16:43:33.967Z,1.43
2019-05-29T16:46:03.428Z,1.43
2019-05-29T16:48:32.951Z,1.63
2019-05-29T16:51:02.432Z,1.70
2019-05-29T16:53:33.013Z,1.70
2019-05-29T16:56:02.490Z,1.50
2019-05-29T16:58:32.409Z,1.50
2019-05-29T17:01:01.832Z,2.00
2019-05-29T17:03:31.273Z,2.10
2019-05-29T17:06:01.310Z,2.73
2019-05-29T17:08:30.721Z,2.33
2019-05-29T17:11:00.211Z,2.30
2019-05-29T17:13:29.661Z,2.90
2019-05-29T17:15:59.138Z,2.43
2019-05-29T17:18:28.612Z,3.00
2019-05-29T17:20:58.067Z,2.53
2019-05-29T17:23:27.571Z,2.40
2019-05-29T17:26:10.060Z,2.30
2019-05-29T17:28:28.554Z,1.53
2019-05-29T17:31:02.046Z,1.60
2019-05-29T17:33:29.222Z,1.30
2019-05-29T17:35:58.766Z,1.07
2019-05-29T17:38:28.240Z,1.13
2019-05-29T17:40:58.103Z,1.20
2019-05-29T17:43:28.758Z,1.20
2019-05-29T17:45:59.158Z,1.57
2019-05-29T17:48:28.635Z,1.63
2019-05-29T17:50:58.513Z,1.63
2019-05-29T17:53:28.135Z,1.30
2019-05-29T17:55:57.627Z,1.67
2019-05-29T17:58:27.543Z,1.30
2019-05-29T18:00:57.185Z,1.40
2019-05-29T18:03:26.664Z,1.50
2019-05-29T18:05:56.126Z,1.40
2019-05-29T18:08:26.864Z,1.40
2019-05-29T18:10:56.456Z,1.40
2019-05-29T18:13:27.318Z,1.50
2019-05-29T18:15:56.870Z,1.57
2019-05-29T18:18:27.695Z,1.83
2019-05-29T18:20:57.320Z,1.87
2019-05-29T18:23:28.066Z,1.90
2019-05-29T18:25:57.737Z,1.30
2019-05-29T18:28:28.255Z,1.73
2019-05-29T18:30:57.889Z,2.07
2019-05-29T18:33:27.329Z,1.70
2019-05-29T18:35:56.800Z,1.73
2019-05-29T18:38:26.561Z,1.80
2019-05-29T18:40:56.683Z,1.90
2019-05-29T18:43:26.681Z,1.90
2019-05-29T18:45:56.101Z,1.60
2019-05-29T18:48:25.596Z,1.70
2019-05-29T18:50:55.191Z,1.60
2019-05-29T18:53:24.809Z,3.40
2019-05-29T18:55:54.285Z,2.03
2019-05-29T18:58:24.098Z,1.83
2019-05-29T19:00:53.597Z,2.07
2019-05-29T19:03:23.486Z,2.00
2019-05-29T19:05:53.012Z,2.00
2019-05-29T19:08:23.545Z,1.63
2019-05-29T19:10:53.137Z,1.50
2019-05-29T19:13:23.693Z,1.80
2019-05-29T19:15:53.366Z,1.53
2019-05-29T19:18:24.026Z,1.67
2019-05-29T19:20:53.677Z,1.20
2019-05-29T19:23:24.574Z,1.40
2019-05-29T19:25:54.106Z,1.60
2019-05-29T19:28:24.527Z,1.60
2019-05-29T19:30:54.015Z,1.70
2019-05-29T19:33:23.788Z,1.47
2019-05-29T19:35:53.424Z,1.50
2019-05-29T19:38:23.766Z,2.07
2019-05-29T19:40:53.431Z,1.67
2019-05-29T19:43:24.080Z,1.47
2019-05-29T19:45:53.646Z,1.80
2019-05-29T19:48:23.180Z,1.30
2019-05-29T19:50:52.671Z,1.83
2019-05-29T19:53:24.605Z,1.60
2019-05-29T19:55:53.362Z,1.60
2019-05-29T19:58:22.806Z,1.60
2019-05-29T20:00:52.375Z,1.80
2019-05-29T20:03:23.746Z,1.73
2019-05-29T20:05:53.218Z,1.80
2019-05-29T20:08:22.754Z,1.77
2019-05-29T20:10:52.362Z,1.70
2019-05-29T20:13:21.963Z,1.63
2019-05-29T20:15:51.497Z,1.87
2019-05-29T20:18:21.021Z,1.73
2019-05-29T20:20:50.680Z,2.90
2019-05-29T20:23:21.025Z,2.33
2019-05-29T20:25:50.558Z,2.00
2019-05-29T20:28:20.221Z,2.43
2019-05-29T20:30:49.887Z,1.77
2019-05-29T20:33:19.473Z,2.10
2019-05-29T20:35:49.025Z,1.90
2019-05-29T20:38:18.560Z,2.20
2019-05-29T20:40:48.229Z,2.47
2019-05-29T20:43:17.751Z,2.20
2019-05-29T20:45:48.239Z,2.63
2019-05-29T20:48:17.735Z,2.90
2019-05-29T20:50:47.573Z,2.63
2019-05-29T20:53:17.388Z,2.63
2019-05-29T20:55:46.944Z,2.47
2019-05-29T20:58:24.525Z,2.50
2019-05-29T21:00:47.999Z,2.20
2019-05-29T21:03:17.965Z,2.77
2019-05-29T21:05:47.549Z,2.00
2019-05-29T21:08:17.091Z,2.27
2019-05-29T21:10:46.642Z,2.43
2019-05-29T21:13:16.693Z,1.90
2019-05-29T21:15:46.135Z,2.03
2019-05-29T21:18:15.770Z,1.83
2019-05-29T21:20:45.223Z,1.87
2019-05-29T21:23:14.894Z,2.10
2019-05-29T21:25:44.980Z,1.93
2019-05-29T21:28:14.735Z,2.13
2019-05-29T21:30:45.580Z,2.10
2019-05-29T21:33:15.377Z,1.93
2019-05-29T21:35:44.847Z,1.73
2019-05-29T21:38:14.386Z,2.13
2019-05-29T21:40:44.554Z,2.17
2019-05-29T21:43:14.311Z,3.30
2019-05-29T21:45:44.922Z,2.07
2019-05-29T21:48:14.708Z,2.70
2019-05-29T21:50:45.324Z,1.97
2019-05-29T21:53:15.186Z,1.60
2019-05-29T21:55:45.669Z,2.20
2019-05-29T21:58:15.483Z,1.97
2019-05-29T22:00:49.714Z,2.13
2019-05-29T22:03:20.260Z,1.93
2019-05-29T22:05:49.804Z,1.83
2019-05-29T22:08:19.272Z,1.73
2019-05-29T22:10:48.806Z,2.00
2019-05-29T22:13:18.292Z,2.00
2019-05-29T22:15:47.729Z,2.27
2019-05-29T22:18:17.193Z,2.03
2019-05-29T22:20:46.655Z,2.43
2019-05-29T22:23:16.125Z,2.53
2019-05-29T22:25:45.549Z,2.10
2019-05-29T22:28:15.020Z,3.53
2019-05-29T22:30:44.467Z,7.93
2019-05-29T22:33:14.043Z,7.07
2019-05-29T22:35:43.485Z,5.27
2019-05-29T22:38:12.922Z,7.80
2019-05-29T22:40:42.389Z,6.30
2019-05-29T22:43:11.825Z,6.13
2019-05-29T22:45:41.371Z,7.93
2019-05-29T22:48:10.920Z,4.70
2019-05-29T22:50:40.395Z,2.60
2019-05-29T22:53:09.838Z,2.53
2019-05-29T22:55:39.343Z,2.10
2019-05-29T22:58:08.825Z,2.10
2019-05-29T23:00:38.294Z,2.10
2019-05-29T23:03:07.738Z,2.13
2019-05-29T23:05:37.251Z,4.23
2019-05-29T23:08:06.726Z,5.63
2019-05-29T23:10:36.293Z,3.60
2019-05-29T23:13:06.188Z,4.13
2019-05-29T23:15:35.698Z,3.83
2019-05-29T23:18:05.132Z,3.90
2019-05-29T23:20:35.096Z,3.70
2019-05-29T23:23:04.568Z,2.93
2019-05-29T23:25:34.054Z,13.30
2019-05-29T23:28:03.543Z,33.20
2019-05-29T23:30:33.020Z,50.03
2019-05-29T23:33:03.439Z,37.17
2019-05-29T23:35:33.001Z,23.90
2019-05-29T23:38:03.496Z,10.37
2019-05-29T23:40:33.023Z,7.63
2019-05-29T23:43:03.563Z,9.97
2019-05-29T23:45:33.158Z,13.70
2019-05-29T23:48:03.763Z,12.90
2019-05-29T23:50:33.369Z,14.10
2019-05-29T23:53:03.946Z,12.80
2019-05-29T23:55:34.614Z,9.80
2019-05-29T23:58:07.852Z,9.57
